Red Elm, South Dakota
Current Conditions -  °F | °C
As of 11:55 PM on Saturday 22 Nov 2014 (Local Time) from KPHP Reporting Station
Overcast Overcast  
Wind Chill: 34°   Ceiling: 5500
Heat Index: 42°   Visibility: 10mi
Dew Point: 34°   Wind: 18mph
Humidity: 73%   Direction: 320°NW
Pressure: 29.5"   Gusts: 26mph
Location:  45.0029°N, 101.639°W
Report Text: KPHP 230655Z AUTO 32016G23KT 10SM OVC055 06/01 A2950 RMK AO2 PK WND 33028/0632 RAB0557E14 SLP985 P0000 T00560011 401831061 $
Loading
Personal Weather Stations






























Interactive Weather Map New forecast layout! Learn more

10-Day Weather Forecast

Advertisements
Track Severe Weather on mobile